createdAt,value
2022-12-26T00:01:08.738Z,95642.38
2022-12-26T00:03:37.320Z,95662.63
2022-12-26T00:06:13.127Z,95653.97
2022-12-26T00:08:42.076Z,95648.63
2022-12-26T00:11:09.696Z,95645.97
2022-12-26T00:13:41.428Z,95644.72
2022-12-26T00:16:11.292Z,95647.06
2022-12-26T00:18:39.796Z,95641.78
2022-12-26T00:21:10.540Z,95647.78
2022-12-26T00:23:38.985Z,95651.53
2022-12-26T00:26:09.123Z,95652.72
2022-12-26T00:28:37.489Z,95647.06
2022-12-26T00:31:06.222Z,95655.69
2022-12-26T00:33:35.748Z,95651.78
2022-12-26T00:36:05.042Z,95653.25
2022-12-26T00:38:35.319Z,95655.34
2022-12-26T00:41:02.966Z,95655.97
2022-12-26T00:43:31.588Z,95651.78
2022-12-26T00:45:59.715Z,95659.41
2022-12-26T00:48:28.647Z,95659.25
2022-12-26T00:50:56.695Z,95665.34
2022-12-26T00:53:25.206Z,95663.03
2022-12-26T00:55:54.977Z,95660.22
2022-12-26T00:58:24.681Z,95665.19
2022-12-26T01:00:55.338Z,95662.84
2022-12-26T01:03:24.594Z,95666.38
2022-12-26T01:05:52.827Z,95665.13
2022-12-26T01:08:24.571Z,95667.78
2022-12-26T01:10:54.422Z,95670.56
2022-12-26T01:13:22.927Z,95683.19
2022-12-26T01:15:51.633Z,95681.09
2022-12-26T01:18:20.341Z,95681.59
2022-12-26T01:20:49.894Z,95683.47
2022-12-26T01:23:18.159Z,95683.28
2022-12-26T01:26:15.490Z,95694.88
2022-12-26T01:28:35.456Z,95696.22
2022-12-26T01:31:04.138Z,95689.31
2022-12-26T01:33:33.550Z,95696.47
2022-12-26T01:36:01.260Z,95694.72
2022-12-26T01:38:30.146Z,95698.81
2022-12-26T01:41:11.700Z,95695.38
2022-12-26T01:43:52.463Z,95702.47
2022-12-26T01:46:23.225Z,95712.13
2022-12-26T01:48:53.199Z,95695.41
2022-12-26T01:51:25.866Z,95693.97
2022-12-26T01:54:39.491Z,95688.19
2022-12-26T01:56:47.729Z,95693.13
2022-12-26T01:59:23.438Z,95690.53
2022-12-26T02:01:54.574Z,95700.00
2022-12-26T02:04:47.818Z,95695.69
2022-12-26T02:07:15.489Z,95695.63
2022-12-26T02:09:44.018Z,95691.94
2022-12-26T02:12:34.934Z,95700.38
2022-12-26T02:15:11.037Z,95699.53
2022-12-26T02:17:38.886Z,95694.91
2022-12-26T02:20:18.444Z,95698.34
2022-12-26T02:23:28.522Z,95694.06
2022-12-26T02:26:31.514Z,95694.56
2022-12-26T02:29:25.323Z,95679.94
2022-12-26T02:32:03.997Z,95676.69
2022-12-26T02:34:42.112Z,95682.78
2022-12-26T02:37:25.418Z,95687.38
2022-12-26T02:40:04.130Z,95685.03
2022-12-26T02:42:42.765Z,95685.47
2022-12-26T02:45:37.855Z,95681.66
2022-12-26T02:48:14.335Z,95671.91
2022-12-26T02:51:18.790Z,95681.94
2022-12-26T02:54:12.782Z,95681.38
2022-12-26T02:57:05.324Z,95685.56
2022-12-26T03:00:02.731Z,95678.66
2022-12-26T03:02:53.564Z,95678.09
2022-12-26T03:05:48.121Z,95686.44
2022-12-26T03:08:39.583Z,95685.03
2022-12-26T03:11:25.005Z,95688.28
2022-12-26T03:13:55.089Z,95684.13
2022-12-26T03:16:43.705Z,95684.47
2022-12-26T03:19:15.050Z,95686.44
2022-12-26T03:21:48.548Z,95680.94
2022-12-26T03:24:18.163Z,95674.13
2022-12-26T03:26:50.429Z,95669.81
2022-12-26T03:29:37.818Z,95669.13
2022-12-26T03:32:08.861Z,95668.75
2022-12-26T03:34:41.013Z,95678.41
2022-12-26T03:37:50.134Z,95678.41
2022-12-26T03:40:47.974Z,95671.78
2022-12-26T03:43:45.305Z,95675.75
2022-12-26T03:46:38.175Z,95669.00
2022-12-26T03:49:28.307Z,95691.94
2022-12-26T03:52:20.482Z,95695.19
2022-12-26T03:55:15.223Z,95698.50
2022-12-26T03:58:09.021Z,95699.44
2022-12-26T04:00:59.185Z,95709.91
2022-12-26T04:03:48.040Z,95708.47
2022-12-26T04:06:38.350Z,95711.81
2022-12-26T04:09:29.169Z,95713.13
2022-12-26T04:12:17.652Z,95701.78
2022-12-26T04:15:08.670Z,95700.13
2022-12-26T04:17:59.584Z,95706.69
2022-12-26T04:20:34.203Z,95710.31
2022-12-26T04:23:28.050Z,95702.41
2022-12-26T04:26:21.765Z,95707.84
2022-12-26T04:29:08.589Z,95705.03
2022-12-26T04:32:02.762Z,95709.63
2022-12-26T04:34:57.952Z,95711.44
2022-12-26T04:37:47.786Z,95709.63
2022-12-26T04:40:37.568Z,95706.00
2022-12-26T04:43:50.114Z,95714.16
2022-12-26T04:46:15.068Z,95700.34
2022-12-26T04:49:01.956Z,95700.91
2022-12-26T04:51:30.275Z,95710.06
2022-12-26T04:53:57.980Z,95718.84
2022-12-26T04:56:26.209Z,95717.91
2022-12-26T04:58:53.789Z,95709.72
2022-12-26T05:01:40.515Z,95711.94
2022-12-26T05:04:31.434Z,95713.69
2022-12-26T05:07:17.423Z,95711.00
2022-12-26T05:09:45.167Z,95722.06
2022-12-26T05:12:13.227Z,95718.72
2022-12-26T05:14:40.872Z,95719.56
2022-12-26T05:17:31.284Z,95716.44
2022-12-26T05:20:17.456Z,95711.81
2022-12-26T05:23:05.876Z,95720.09
2022-12-26T05:25:54.010Z,95728.28
2022-12-26T05:28:40.131Z,95724.44
2022-12-26T05:31:08.105Z,95723.38
2022-12-26T05:33:55.093Z,95724.16
2022-12-26T05:36:26.097Z,95719.66
2022-12-26T05:38:56.364Z,95717.41
2022-12-26T05:41:24.943Z,95714.94
2022-12-26T05:43:53.160Z,95719.25
2022-12-26T05:46:20.800Z,95723.16
2022-12-26T05:48:50.426Z,95712.50
2022-12-26T05:51:18.230Z,95716.25
2022-12-26T05:53:46.364Z,95713.75
2022-12-26T05:56:16.553Z,95704.34
2022-12-26T05:58:45.035Z,95695.66
2022-12-26T06:01:14.619Z,95705.38
2022-12-26T06:03:44.484Z,95715.97
2022-12-26T06:06:13.495Z,95716.16
2022-12-26T06:08:42.205Z,95715.22
2022-12-26T06:11:12.237Z,95709.09
2022-12-26T06:13:41.528Z,95706.31
2022-12-26T06:16:10.884Z,95707.50
2022-12-26T06:18:39.995Z,95707.34
2022-12-26T06:21:09.397Z,95704.09
2022-12-26T06:23:39.548Z,95698.47
2022-12-26T06:26:09.546Z,95707.22
2022-12-26T06:28:37.624Z,95694.28
2022-12-26T06:31:06.338Z,95698.94
2022-12-26T06:33:35.353Z,95698.44
2022-12-26T06:36:04.898Z,95699.88
2022-12-26T06:38:33.329Z,95699.88
2022-12-26T06:41:02.373Z,95701.06
2022-12-26T06:43:30.715Z,95696.44
2022-12-26T06:45:59.272Z,95687.00
2022-12-26T06:48:28.237Z,95674.91
2022-12-26T06:50:56.119Z,95686.28
2022-12-26T06:53:25.177Z,95674.09
2022-12-26T06:55:53.370Z,95686.19
2022-12-26T06:58:22.625Z,95683.13
2022-12-26T07:00:50.251Z,95684.91
2022-12-26T07:03:19.260Z,95695.50
2022-12-26T07:05:46.848Z,95697.44
2022-12-26T07:08:14.993Z,95696.97
2022-12-26T07:10:42.603Z,95691.94
2022-12-26T07:13:10.553Z,95687.75
2022-12-26T07:15:39.655Z,95694.47
2022-12-26T07:18:07.259Z,95692.38
2022-12-26T07:20:35.158Z,95710.94
2022-12-26T07:23:03.030Z,95712.63
2022-12-26T07:25:30.617Z,95720.94
2022-12-26T07:27:58.220Z,95720.25
2022-12-26T07:30:26.004Z,95720.38
2022-12-26T07:32:55.042Z,95728.34
2022-12-26T07:35:23.401Z,95728.56
2022-12-26T07:37:50.976Z,95727.34
2022-12-26T07:40:18.753Z,95721.31
2022-12-26T07:42:46.387Z,95719.69
2022-12-26T07:45:14.890Z,95711.88
2022-12-26T07:47:42.775Z,95718.34
2022-12-26T07:50:12.166Z,95707.22
2022-12-26T07:52:39.750Z,95718.59
2022-12-26T07:55:08.805Z,95700.19
2022-12-26T07:57:48.701Z,95704.38
2022-12-26T08:00:19.020Z,95702.69
2022-12-26T08:02:48.892Z,95712.63
2022-12-26T08:05:21.125Z,95707.97
2022-12-26T08:07:49.732Z,95708.88
2022-12-26T08:10:17.940Z,95702.91
2022-12-26T08:12:45.581Z,95709.88
2022-12-26T08:15:13.695Z,95706.78
2022-12-26T08:17:41.420Z,95714.50
2022-12-26T08:20:10.191Z,95719.19
2022-12-26T08:22:39.136Z,95714.34
2022-12-26T08:25:08.251Z,95717.25
2022-12-26T08:27:35.922Z,95712.59
2022-12-26T08:30:05.212Z,95736.84
2022-12-26T08:32:32.855Z,95708.78
2022-12-26T08:35:01.104Z,95716.50
2022-12-26T08:37:28.730Z,95711.13
2022-12-26T08:39:58.274Z,95713.22
2022-12-26T08:42:25.851Z,95716.94
2022-12-26T08:44:53.687Z,95714.25
2022-12-26T08:47:21.943Z,95716.94
2022-12-26T08:49:50.062Z,95710.25
2022-12-26T08:52:17.639Z,95697.75
2022-12-26T08:54:45.614Z,95691.13
2022-12-26T08:57:15.522Z,95688.47
2022-12-26T08:59:43.411Z,95692.38
2022-12-26T09:02:12.070Z,95686.72
2022-12-26T09:04:40.052Z,95693.41
2022-12-26T09:07:09.081Z,95699.19
2022-12-26T09:09:37.049Z,95698.69
2022-12-26T09:12:05.098Z,95701.84
2022-12-26T09:14:34.462Z,95705.00
2022-12-26T09:17:02.217Z,95700.78
2022-12-26T09:19:32.373Z,95705.34
2022-12-26T09:22:14.269Z,95710.63
2022-12-26T09:24:42.258Z,95711.78
2022-12-26T09:27:10.063Z,95726.50
2022-12-26T09:29:39.275Z,95716.78
2022-12-26T09:32:07.881Z,95718.47
2022-12-26T09:34:35.670Z,95708.34
2022-12-26T09:37:03.579Z,95712.28
2022-12-26T09:39:32.110Z,95707.06
2022-12-26T09:42:09.619Z,95712.84
2022-12-26T09:44:49.297Z,95711.88
2022-12-26T09:47:30.886Z,95712.84
2022-12-26T09:50:02.220Z,95703.88
2022-12-26T09:52:44.343Z,95692.25
2022-12-26T09:55:27.437Z,95686.94
2022-12-26T09:58:00.835Z,95688.88
2022-12-26T10:00:38.283Z,95694.13
2022-12-26T10:03:08.125Z,95682.75
2022-12-26T10:05:42.030Z,95686.66
2022-12-26T10:08:23.279Z,95679.53
2022-12-26T10:10:59.558Z,95683.56
2022-12-26T10:13:35.577Z,95682.69
2022-12-26T10:16:12.404Z,95677.72
2022-12-26T10:18:53.521Z,95673.13
2022-12-26T10:21:48.310Z,95687.25
2022-12-26T10:24:19.361Z,95681.50
2022-12-26T10:26:50.775Z,95675.63
2022-12-26T10:29:24.489Z,95681.94
2022-12-26T10:31:57.734Z,95689.06
2022-12-26T10:34:29.859Z,95684.88
2022-12-26T10:37:02.425Z,95684.78
2022-12-26T10:39:36.920Z,95687.22
2022-12-26T10:42:13.095Z,95696.94
2022-12-26T10:44:41.263Z,95695.53
2022-12-26T10:47:25.177Z,95702.47
2022-12-26T10:49:53.658Z,95705.31
2022-12-26T10:52:27.859Z,95709.38
2022-12-26T10:55:27.116Z,95727.75
2022-12-26T10:57:50.206Z,95726.91
2022-12-26T11:00:21.107Z,95725.44
2022-12-26T11:03:04.573Z,95731.06
2022-12-26T11:06:05.963Z,95730.28
2022-12-26T11:08:26.611Z,95729.00
2022-12-26T11:11:05.423Z,95758.69
2022-12-26T11:13:38.554Z,95745.53
2022-12-26T11:16:07.930Z,95744.44
2022-12-26T11:18:40.001Z,95738.63
2022-12-26T11:21:20.697Z,95747.06
2022-12-26T11:23:49.565Z,95748.00
2022-12-26T11:26:23.911Z,95762.38
2022-12-26T11:29:07.529Z,95773.31
2022-12-26T11:31:35.258Z,95763.59
2022-12-26T11:34:09.920Z,95773.66
2022-12-26T11:36:45.573Z,95791.38
2022-12-26T11:39:24.380Z,95779.28
2022-12-26T11:41:53.358Z,95776.69
2022-12-26T11:44:27.378Z,95782.06
2022-12-26T11:47:00.069Z,95784.16
2022-12-26T11:49:34.483Z,95783.19
2022-12-26T11:52:23.850Z,95799.19
2022-12-26T11:54:52.124Z,95790.69
2022-12-26T11:57:22.275Z,95794.69
2022-12-26T11:59:52.675Z,95802.44
2022-12-26T12:02:27.367Z,95784.84
2022-12-26T12:05:01.354Z,95792.69
2022-12-26T12:07:43.368Z,95802.09
2022-12-26T12:10:34.914Z,95808.56
2022-12-26T12:13:11.328Z,95804.88
2022-12-26T12:15:45.950Z,95819.09
2022-12-26T12:18:21.392Z,95811.94
2022-12-26T12:21:04.675Z,95819.53
2022-12-26T12:23:48.123Z,95802.47
2022-12-26T12:26:20.954Z,95815.16
2022-12-26T12:29:09.231Z,95807.94
2022-12-26T12:31:49.804Z,95814.63
2022-12-26T12:34:28.709Z,95821.09
2022-12-26T12:37:12.462Z,95823.91
2022-12-26T12:39:56.026Z,95828.72
2022-12-26T12:42:34.555Z,95828.38
2022-12-26T12:45:26.965Z,95838.47
2022-12-26T12:48:05.943Z,95840.03
2022-12-26T12:50:41.736Z,95842.03
2022-12-26T12:56:14.530Z,95817.91
2022-12-26T12:58:52.706Z,95829.28
2022-12-26T13:01:24.211Z,95844.22
2022-12-26T13:03:57.436Z,95837.00
2022-12-26T13:06:31.637Z,95828.84
2022-12-26T13:09:03.947Z,95846.41
2022-12-26T13:11:38.955Z,95842.25
2022-12-26T13:14:12.947Z,95850.41
2022-12-26T13:16:46.303Z,95848.69
2022-12-26T13:19:19.610Z,95860.97
2022-12-26T13:21:49.619Z,95857.28
2022-12-26T13:24:26.466Z,95865.69
2022-12-26T13:26:59.688Z,95871.16
2022-12-26T13:29:37.540Z,95867.44
2022-12-26T13:32:15.397Z,95867.78
2022-12-26T13:34:45.343Z,95865.00
2022-12-26T13:37:46.401Z,95853.31
2022-12-26T13:40:19.036Z,95858.09
2022-12-26T13:43:09.829Z,95868.34
2022-12-26T13:45:52.688Z,95870.19
2022-12-26T13:48:58.383Z,95873.00
2022-12-26T13:51:50.986Z,95873.44
2022-12-26T13:54:20.861Z,95876.63
2022-12-26T13:57:27.298Z,95876.63
2022-12-26T14:00:19.185Z,95867.34
2022-12-26T14:03:24.930Z,95863.91
2022-12-26T14:06:12.226Z,95858.22
2022-12-26T14:08:55.278Z,95858.03
2022-12-26T14:11:49.705Z,95852.28
2022-12-26T14:14:29.206Z,95849.22
2022-12-26T14:17:14.068Z,95854.91
2022-12-26T14:19:50.698Z,95842.47
2022-12-26T14:22:25.970Z,95845.84
2022-12-26T14:25:04.166Z,95849.41
2022-12-26T14:27:38.732Z,95865.53
2022-12-26T14:30:19.917Z,95875.81
2022-12-26T14:33:01.972Z,95866.41
2022-12-26T14:35:35.340Z,95872.44
2022-12-26T14:38:19.849Z,95873.06
2022-12-26T14:41:00.924Z,95874.00
2022-12-26T14:43:36.498Z,95865.69
2022-12-26T14:46:09.773Z,95864.31
2022-12-26T14:48:49.613Z,95858.25
2022-12-26T14:51:48.915Z,95843.91
2022-12-26T14:54:38.337Z,95847.47
2022-12-26T14:57:47.099Z,95850.72
2022-12-26T15:00:33.700Z,95844.38
2022-12-26T15:03:32.093Z,95842.38
2022-12-26T15:06:29.502Z,95838.75
2022-12-26T15:09:11.648Z,95843.47
2022-12-26T15:11:58.583Z,95835.38
2022-12-26T15:15:17.839Z,95825.63
2022-12-26T15:17:57.345Z,95820.63
2022-12-26T15:21:17.829Z,95824.25
2022-12-26T15:24:10.085Z,95805.66
2022-12-26T15:27:02.232Z,95805.03
2022-12-26T15:29:53.428Z,95821.94
2022-12-26T15:32:31.989Z,95828.16
2022-12-26T15:35:12.602Z,95845.50
2022-12-26T15:37:57.268Z,95856.00
2022-12-26T15:40:28.085Z,95840.03
2022-12-26T15:43:17.082Z,95833.19
2022-12-26T15:45:50.286Z,95809.81
2022-12-26T15:48:34.267Z,95827.91
2022-12-26T15:51:06.801Z,95838.22
2022-12-26T15:53:48.332Z,95837.69
2022-12-26T15:56:40.423Z,95815.75
2022-12-26T15:59:44.747Z,95797.78
2022-12-26T16:02:15.176Z,95813.84
2022-12-26T16:04:48.911Z,95809.09
2022-12-26T16:07:28.614Z,95822.72
2022-12-26T16:09:58.106Z,95825.72
2022-12-26T16:12:28.199Z,95824.91
2022-12-26T16:15:14.556Z,95819.47
2022-12-26T16:17:43.862Z,95826.19
2022-12-26T16:20:40.057Z,95821.91
2022-12-26T16:23:07.405Z,95823.09
2022-12-26T16:25:38.112Z,95833.66
2022-12-26T16:28:06.679Z,95817.19
2022-12-26T16:30:37.912Z,95815.81
2022-12-26T16:33:07.270Z,95821.94
2022-12-26T16:35:38.775Z,95821.16
2022-12-26T16:38:09.143Z,95827.16
2022-12-26T16:40:44.378Z,95799.31
2022-12-26T16:43:25.867Z,95804.47
2022-12-26T16:45:56.295Z,95820.53
2022-12-26T16:48:26.636Z,95820.53
2022-12-26T16:50:56.629Z,95831.06
2022-12-26T16:53:26.559Z,95832.00
2022-12-26T16:56:00.849Z,95820.53
2022-12-26T16:58:32.231Z,95832.13
2022-12-26T17:01:07.582Z,95826.16
2022-12-26T17:03:39.887Z,95829.03
2022-12-26T17:06:15.053Z,95816.31
2022-12-26T17:08:46.482Z,95822.41
2022-12-26T17:11:15.906Z,95830.13
2022-12-26T17:13:51.247Z,95817.81
2022-12-26T17:16:19.207Z,95841.78
2022-12-26T17:18:52.468Z,95841.47
2022-12-26T17:21:28.806Z,95837.41
2022-12-26T17:24:12.755Z,95828.47
2022-12-26T17:26:43.582Z,95846.19
2022-12-26T17:29:44.862Z,95849.34
2022-12-26T17:32:15.748Z,95875.56
2022-12-26T17:34:43.649Z,95868.84
2022-12-26T17:37:20.250Z,95868.03
2022-12-26T17:39:54.967Z,95865.34
2022-12-26T17:42:27.375Z,95858.94
2022-12-26T17:44:56.807Z,95861.53
2022-12-26T17:47:28.642Z,95864.56
2022-12-26T17:49:57.413Z,95866.94
2022-12-26T17:52:28.280Z,95860.69
2022-12-26T17:54:57.829Z,95857.78
2022-12-26T17:57:30.480Z,95846.75
2022-12-26T17:59:58.475Z,95871.16
2022-12-26T18:02:26.630Z,95857.97
2022-12-26T18:04:55.836Z,95852.25
2022-12-26T18:07:32.245Z,95845.72
2022-12-26T18:10:00.398Z,95857.44
2022-12-26T18:12:29.943Z,95865.03
2022-12-26T18:15:02.095Z,95871.94
2022-12-26T18:17:32.927Z,95852.63
2022-12-26T18:20:00.561Z,95849.56
2022-12-26T18:22:28.738Z,95844.25
2022-12-26T18:24:56.348Z,95851.50
2022-12-26T18:27:30.381Z,95867.97
2022-12-26T18:29:59.853Z,95863.63
2022-12-26T18:32:30.417Z,95870.03
2022-12-26T18:34:59.279Z,95870.53
2022-12-26T18:37:29.019Z,95855.88
2022-12-26T18:39:56.984Z,95868.44
2022-12-26T18:42:25.200Z,95877.66
2022-12-26T18:44:53.388Z,95872.31
2022-12-26T18:47:23.449Z,95879.09
2022-12-26T18:49:51.951Z,95891.47
2022-12-26T18:52:19.645Z,95881.78
2022-12-26T18:54:48.886Z,95875.47
2022-12-26T18:57:21.196Z,95883.88
2022-12-26T18:59:49.562Z,95879.25
2022-12-26T19:02:18.605Z,95880.97
2022-12-26T19:04:48.919Z,95888.00
2022-12-26T19:07:17.998Z,95880.56
2022-12-26T19:09:46.524Z,95874.59
2022-12-26T19:12:14.994Z,95865.38
2022-12-26T19:14:43.021Z,95873.69
2022-12-26T19:17:10.627Z,95875.38
2022-12-26T19:19:38.267Z,95883.44
2022-12-26T19:22:07.397Z,95884.09
2022-12-26T19:24:35.309Z,95884.88
2022-12-26T19:27:02.964Z,95872.13
2022-12-26T19:29:31.160Z,95881.84
2022-12-26T19:31:58.820Z,95875.28
2022-12-26T19:34:27.032Z,95874.97
2022-12-26T19:36:54.627Z,95874.47
2022-12-26T19:39:24.228Z,95869.00
2022-12-26T19:41:51.824Z,95881.69
2022-12-26T19:44:20.193Z,95860.34
2022-12-26T19:46:47.867Z,95856.25
2022-12-26T19:49:16.379Z,95862.56
2022-12-26T19:51:43.990Z,95852.63
2022-12-26T19:54:12.418Z,95856.25
2022-12-26T19:56:41.789Z,95846.66
2022-12-26T19:59:09.723Z,95846.94
2022-12-26T20:01:37.488Z,95847.84
2022-12-26T20:04:06.959Z,95849.56
2022-12-26T20:06:37.323Z,95851.94
2022-12-26T20:09:07.185Z,95852.16
2022-12-26T20:11:37.358Z,95846.47
2022-12-26T20:14:08.843Z,95849.09
2022-12-26T20:19:25.601Z,95870.28
2022-12-26T20:21:54.014Z,95864.47
2022-12-26T20:24:23.252Z,95868.88
2022-12-26T20:26:51.428Z,95872.19
2022-12-26T20:29:21.028Z,95892.91
2022-12-26T20:31:54.982Z,95900.41
2022-12-26T20:34:23.492Z,95957.63
2022-12-26T20:36:51.137Z,96025.56
2022-12-26T20:39:20.340Z,95996.19
2022-12-26T20:41:48.025Z,96008.19
2022-12-26T20:44:16.862Z,96015.69
2022-12-26T20:46:46.604Z,96004.44
2022-12-26T20:49:14.478Z,96038.41
2022-12-26T20:51:44.014Z,96023.53
2022-12-26T20:54:13.540Z,96024.66
2022-12-26T20:56:41.929Z,96027.91
2022-12-26T20:59:09.838Z,96026.88
2022-12-26T21:01:40.163Z,96037.59
2022-12-26T21:04:09.721Z,96026.63
2022-12-26T21:06:40.039Z,96040.88
2022-12-26T21:09:07.891Z,96032.09
2022-12-26T21:11:38.894Z,96039.56
2022-12-26T21:14:09.334Z,96041.06
2022-12-26T21:16:39.455Z,96038.16
2022-12-26T21:19:15.075Z,96041.03
2022-12-26T21:21:44.578Z,96045.94
2022-12-26T21:24:14.676Z,96051.78
2022-12-26T21:26:44.086Z,96053.56
2022-12-26T21:29:14.715Z,96053.13
2022-12-26T21:31:42.851Z,96055.56
2022-12-26T21:34:14.514Z,96056.28
2022-12-26T21:37:04.121Z,96059.59
2022-12-26T21:39:32.183Z,96056.19
2022-12-26T21:42:00.181Z,96070.34
2022-12-26T21:44:27.810Z,96068.31
2022-12-26T21:46:55.708Z,96067.16
2022-12-26T21:49:24.656Z,96072.50
2022-12-26T21:51:52.253Z,96064.34
2022-12-26T21:54:37.574Z,96068.94
2022-12-26T21:57:05.606Z,96073.53
2022-12-26T21:59:50.763Z,96076.06
2022-12-26T22:02:32.912Z,96087.84
2022-12-26T22:05:02.667Z,96083.97
2022-12-26T22:07:31.018Z,96084.34
2022-12-26T22:09:58.656Z,96077.75
2022-12-26T22:12:44.421Z,96082.09
2022-12-26T22:15:26.440Z,96087.00
2022-12-26T22:17:54.464Z,96092.72
2022-12-26T22:20:23.603Z,96097.81
2022-12-26T22:22:51.698Z,96092.13
2022-12-26T22:25:19.854Z,96091.41
2022-12-26T22:27:48.192Z,96101.09
2022-12-26T22:30:15.782Z,96093.13
2022-12-26T22:32:43.388Z,96103.63
2022-12-26T22:35:18.175Z,96103.94
2022-12-26T22:37:48.135Z,96105.44
2022-12-26T22:40:15.969Z,96100.50
2022-12-26T22:42:43.922Z,96123.97
2022-12-26T22:45:11.848Z,96124.31
2022-12-26T22:47:39.446Z,96119.72
2022-12-26T22:50:07.809Z,96137.13
2022-12-26T22:52:35.863Z,96131.31
2022-12-26T22:55:05.325Z,96137.22
2022-12-26T22:57:33.604Z,96139.91
2022-12-26T23:00:10.113Z,96142.63
2022-12-26T23:02:38.703Z,96143.81
2022-12-26T23:05:07.624Z,96138.88
2022-12-26T23:07:36.043Z,96137.59
2022-12-26T23:10:06.364Z,96158.41
2022-12-26T23:12:46.942Z,96165.41
2022-12-26T23:15:17.441Z,96147.13
2022-12-26T23:18:08.050Z,96160.50
2022-12-26T23:20:55.242Z,96151.66
2022-12-26T23:23:24.274Z,96172.69
2022-12-26T23:25:53.216Z,96169.41
2022-12-26T23:28:38.706Z,96168.00
2022-12-26T23:31:06.334Z,96169.94
2022-12-26T23:33:34.329Z,96163.59
2022-12-26T23:36:02.346Z,96165.16
2022-12-26T23:38:30.827Z,96160.91
2022-12-26T23:41:00.519Z,96166.38
2022-12-26T23:43:28.795Z,96168.13
2022-12-26T23:45:56.398Z,96175.75
2022-12-26T23:48:25.064Z,96182.47
2022-12-26T23:51:02.120Z,96173.31
2022-12-26T23:53:31.054Z,96188.41
2022-12-26T23:56:00.155Z,96193.19
2022-12-26T23:58:28.179Z,96204.16
